createdAt,value
2018-08-19T00:03:57.653Z,3.60
2018-08-19T00:09:07.184Z,3.90
2018-08-19T00:14:30.628Z,3.80
2018-08-19T00:19:35.729Z,3.80
2018-08-19T00:24:39.798Z,3.53
2018-08-19T00:29:43.633Z,4.13
2018-08-19T00:34:47.464Z,4.57
2018-08-19T00:39:52.837Z,4.17
2018-08-19T00:44:57.017Z,3.80
2018-08-19T00:50:03.145Z,3.77
2018-08-19T00:55:07.211Z,3.93
2018-08-19T01:00:11.044Z,4.20
2018-08-19T01:05:15.112Z,4.07
2018-08-19T01:10:19.266Z,4.15
2018-08-19T01:15:23.364Z,3.97
2018-08-19T01:20:27.470Z,4.20
2018-08-19T01:25:31.546Z,4.20
2018-08-19T01:30:35.373Z,4.03
2018-08-19T01:35:40.483Z,4.13
2018-08-19T01:40:44.548Z,4.00
2018-08-19T01:45:48.440Z,4.43
2018-08-19T01:50:52.522Z,3.90
2018-08-19T01:55:56.597Z,4.17
2018-08-19T02:01:00.953Z,4.37
2018-08-19T02:06:05.315Z,3.90
2018-08-19T02:11:26.540Z,3.90
2018-08-19T02:16:30.629Z,3.70
2018-08-19T02:21:34.701Z,4.03
2018-08-19T02:26:38.797Z,4.40
2018-08-19T02:31:42.897Z,4.33
2018-08-19T02:36:46.961Z,4.40
2018-08-19T02:41:51.066Z,4.57
2018-08-19T02:46:55.252Z,4.20
2018-08-19T02:51:59.117Z,4.70
2018-08-19T02:57:03.189Z,4.90
2018-08-19T03:02:43.685Z,4.53
2018-08-19T03:07:48.389Z,4.87
2018-08-19T03:12:52.224Z,4.93
2018-08-19T03:17:56.305Z,5.00
2018-08-19T03:23:00.376Z,4.60
2018-08-19T03:28:04.498Z,5.20
2018-08-19T03:33:11.644Z,5.20
2018-08-19T03:38:15.654Z,4.47
2018-08-19T03:43:19.768Z,4.90
2018-08-19T03:48:23.749Z,4.97
2018-08-19T03:53:28.492Z,5.43
2018-08-19T03:58:32.492Z,5.37
2018-08-19T04:03:36.494Z,5.90
2018-08-19T04:08:45.752Z,5.70
2018-08-19T04:13:49.808Z,5.93
2018-08-19T04:19:01.242Z,5.53
2018-08-19T04:24:05.279Z,5.43
2018-08-19T04:29:13.481Z,5.67
2018-08-19T04:34:17.499Z,5.13
2018-08-19T04:39:21.767Z,5.23
2018-08-19T04:44:25.566Z,4.70
2018-08-19T04:49:29.606Z,5.63
2018-08-19T04:54:33.712Z,5.63
2018-08-19T04:59:38.034Z,6.17
2018-08-19T05:04:41.837Z,5.83
2018-08-19T05:09:46.038Z,6.20
2018-08-19T05:14:50.334Z,6.23
2018-08-19T05:20:19.133Z,6.10
2018-08-19T05:25:23.123Z,5.50
2018-08-19T05:30:27.182Z,5.93
2018-08-19T05:35:32.221Z,6.23
2018-08-19T05:40:36.222Z,5.47
2018-08-19T05:45:44.550Z,6.03
2018-08-19T05:50:48.390Z,5.80
2018-08-19T05:55:52.554Z,5.60
2018-08-19T06:01:00.656Z,5.07
2018-08-19T06:06:04.820Z,5.20
2018-08-19T06:11:08.808Z,4.50
2018-08-19T06:16:12.589Z,5.30
2018-08-19T06:21:16.439Z,4.70
2018-08-19T06:26:24.779Z,5.23
2018-08-19T06:31:28.566Z,4.40
2018-08-19T06:36:33.043Z,4.57
2018-08-19T06:41:36.795Z,4.73
2018-08-19T06:46:40.590Z,4.50
2018-08-19T06:51:44.594Z,4.40
2018-08-19T06:56:48.654Z,5.80
2018-08-19T07:01:52.890Z,5.47
2018-08-19T07:06:56.752Z,4.53
2018-08-19T07:12:11.811Z,4.70
2018-08-19T07:17:16.130Z,4.67
2018-08-19T07:22:21.505Z,4.83
2018-08-19T07:27:25.437Z,5.33
2018-08-19T07:32:29.555Z,5.47
2018-08-19T07:37:34.490Z,4.60
2018-08-19T07:42:38.535Z,5.10
2018-08-19T07:47:42.591Z,5.00
2018-08-19T07:52:46.680Z,4.35
2018-08-19T07:57:50.727Z,4.30
2018-08-19T08:02:55.023Z,4.53
2018-08-19T08:07:59.082Z,4.93
2018-08-19T08:13:08.415Z,4.67
2018-08-19T08:18:13.009Z,4.60
2018-08-19T08:23:24.171Z,4.47
2018-08-19T08:28:28.189Z,4.97
2018-08-19T08:33:32.434Z,5.70
2018-08-19T08:38:36.585Z,5.15
2018-08-19T08:43:40.396Z,4.80
2018-08-19T08:48:44.157Z,4.90
2018-08-19T08:53:48.519Z,4.72
2018-08-19T08:58:52.289Z,4.47
2018-08-19T09:03:56.300Z,4.85
2018-08-19T09:09:00.086Z,4.97
2018-08-19T09:14:04.217Z,4.55
2018-08-19T09:19:08.190Z,4.47
2018-08-19T09:24:12.298Z,5.03
2018-08-19T09:29:16.300Z,5.10
2018-08-19T09:34:20.330Z,4.72
2018-08-19T09:39:24.346Z,4.72
2018-08-19T09:44:28.136Z,4.60
2018-08-19T09:49:32.175Z,4.90
2018-08-19T09:54:36.955Z,5.22
2018-08-19T09:59:41.046Z,5.10
2018-08-19T10:04:45.063Z,4.80
2018-08-19T10:09:48.850Z,5.22
2018-08-19T10:14:53.567Z,5.22
2018-08-19T10:19:57.414Z,4.72
2018-08-19T10:25:03.507Z,4.97
2018-08-19T10:30:07.351Z,5.40
2018-08-19T10:35:17.892Z,5.37
2018-08-19T10:40:21.688Z,5.10
2018-08-19T10:45:25.489Z,5.50
2018-08-19T10:50:30.218Z,5.60
2018-08-19T10:55:34.137Z,5.23
2018-08-19T11:00:38.191Z,5.10
2018-08-19T11:05:43.422Z,5.00
2018-08-19T11:10:47.531Z,4.87
2018-08-19T11:15:52.690Z,4.83
2018-08-19T11:20:59.965Z,4.90
2018-08-19T11:26:04.109Z,5.00
2018-08-19T11:31:19.064Z,4.70
2018-08-19T11:36:31.955Z,4.93
2018-08-19T11:41:36.383Z,4.83
2018-08-19T11:46:40.454Z,5.10
2018-08-19T11:51:56.679Z,4.40
2018-08-19T11:57:08.517Z,5.27
2018-08-19T12:02:21.818Z,5.20
2018-08-19T12:07:25.985Z,4.80
2018-08-19T12:12:45.960Z,5.80
2018-08-19T12:17:50.500Z,4.90
2018-08-19T12:22:54.554Z,5.03
2018-08-19T12:27:58.384Z,5.10
2018-08-19T12:33:13.779Z,5.30
2018-08-19T12:38:18.474Z,5.33
2018-08-19T12:43:22.623Z,5.57
2018-08-19T12:48:27.087Z,5.57
2018-08-19T12:53:32.991Z,5.13
2018-08-19T12:58:36.796Z,5.20
2018-08-19T13:03:40.879Z,5.37
2018-08-19T13:08:44.922Z,5.00
2018-08-19T13:13:49.008Z,5.53
2018-08-19T13:18:53.075Z,5.47
2018-08-19T13:23:57.218Z,5.50
2018-08-19T13:29:01.266Z,5.37
2018-08-19T13:34:05.394Z,5.57
2018-08-19T13:39:09.537Z,6.00
2018-08-19T13:44:13.315Z,5.93
2018-08-19T13:49:25.389Z,5.70
2018-08-19T13:54:29.187Z,5.37
2018-08-19T13:59:33.238Z,5.43
2018-08-19T14:04:37.265Z,5.80
2018-08-19T14:09:41.394Z,6.07
2018-08-19T14:14:45.472Z,5.73
2018-08-19T14:19:49.532Z,5.97
2018-08-19T14:24:53.542Z,5.83
2018-08-19T14:29:57.411Z,5.83
2018-08-19T14:35:02.614Z,5.57
2018-08-19T14:40:08.869Z,5.90
2018-08-19T14:45:12.645Z,5.60
2018-08-19T14:50:18.692Z,5.80
2018-08-19T14:55:22.747Z,6.10
2018-08-19T15:00:26.802Z,5.93
2018-08-19T15:05:30.862Z,6.10
2018-08-19T15:10:35.353Z,5.87
2018-08-19T15:15:39.393Z,6.03
2018-08-19T15:20:43.193Z,5.37
2018-08-19T15:25:47.034Z,6.10
2018-08-19T15:30:51.085Z,5.50
2018-08-19T15:35:55.229Z,5.60
2018-08-19T15:40:59.195Z,5.77
2018-08-19T15:46:03.247Z,5.50
2018-08-19T15:51:10.426Z,5.90
2018-08-19T15:56:14.472Z,5.80
2018-08-19T16:01:33.465Z,5.97
2018-08-19T16:06:37.530Z,5.77
2018-08-19T16:11:41.811Z,5.97
2018-08-19T16:16:46.142Z,6.50
2018-08-19T16:21:51.397Z,5.93
2018-08-19T16:26:55.443Z,6.47
2018-08-19T16:31:59.493Z,6.50
2018-08-19T16:37:03.825Z,8.40
2018-08-19T16:42:07.630Z,6.20
2018-08-19T16:47:11.679Z,6.20
2018-08-19T16:52:15.481Z,5.90
2018-08-19T16:57:19.681Z,6.83
2018-08-19T17:02:23.362Z,6.43
2018-08-19T17:07:27.468Z,6.90
2018-08-19T17:12:31.502Z,6.97
2018-08-19T17:17:35.574Z,6.57
2018-08-19T17:22:39.497Z,6.63
2018-08-19T17:27:43.386Z,7.13
2018-08-19T17:32:55.519Z,6.37
2018-08-19T17:37:59.377Z,6.23
2018-08-19T17:43:03.851Z,6.70
2018-08-19T17:48:07.907Z,6.87
2018-08-19T17:53:11.741Z,6.20
2018-08-19T17:58:15.775Z,6.43
2018-08-19T18:03:19.808Z,6.00
2018-08-19T18:08:23.846Z,6.10
2018-08-19T18:13:28.372Z,5.80
2018-08-19T18:18:32.904Z,5.92
2018-08-19T18:23:36.970Z,5.87
2018-08-19T18:28:48.453Z,5.70
2018-08-19T18:33:57.949Z,5.90
2018-08-19T18:39:02.492Z,5.23
2018-08-19T18:44:08.626Z,5.40
2018-08-19T18:49:14.981Z,5.50
2018-08-19T18:54:27.041Z,5.57
2018-08-19T18:59:30.905Z,5.80
2018-08-19T19:04:35.610Z,5.90
2018-08-19T19:09:44.931Z,6.07
2018-08-19T19:14:49.050Z,5.90
2018-08-19T19:19:52.869Z,6.07
2018-08-19T19:24:56.716Z,5.63
2018-08-19T19:30:04.773Z,6.00
2018-08-19T19:35:13.355Z,6.17
2018-08-19T19:40:20.165Z,5.90
2018-08-19T19:45:24.346Z,6.03
2018-08-19T19:50:28.133Z,6.30
2018-08-19T19:55:32.129Z,6.03
2018-08-19T20:00:50.661Z,6.07
2018-08-19T20:05:54.744Z,5.90
2018-08-19T20:10:58.786Z,5.33
2018-08-19T20:16:02.814Z,5.80
2018-08-19T20:21:10.869Z,5.70
2018-08-19T20:26:14.960Z,5.50
2018-08-19T20:31:19.006Z,5.57
2018-08-19T20:36:22.847Z,6.37
2018-08-19T20:41:27.630Z,5.80
2018-08-19T20:46:31.870Z,5.77
2018-08-19T20:51:35.909Z,5.87
2018-08-19T20:56:39.982Z,6.10
2018-08-19T21:01:43.796Z,6.00
2018-08-19T21:06:47.814Z,5.90
2018-08-19T21:11:51.614Z,6.00
2018-08-19T21:16:55.661Z,6.13
2018-08-19T21:21:59.504Z,6.20
2018-08-19T21:27:04.130Z,6.10
2018-08-19T21:32:07.945Z,6.30
2018-08-19T21:37:12.429Z,6.60
2018-08-19T21:42:16.446Z,6.80
2018-08-19T21:47:20.507Z,5.83
2018-08-19T21:52:24.543Z,6.27
2018-08-19T21:57:28.445Z,6.20
2018-08-19T22:02:37.926Z,5.70
2018-08-19T22:07:42.033Z,5.87
2018-08-19T22:12:49.053Z,6.53
2018-08-19T22:17:53.169Z,6.53
2018-08-19T22:22:57.229Z,6.13
2018-08-19T22:28:01.301Z,6.00
2018-08-19T22:33:05.422Z,6.13
2018-08-19T22:38:13.546Z,6.90
2018-08-19T22:43:18.738Z,6.43
2018-08-19T22:48:38.555Z,6.70
2018-08-19T22:53:42.569Z,6.47
2018-08-19T22:58:46.578Z,6.70
2018-08-19T23:04:00.132Z,6.67
2018-08-19T23:09:04.993Z,7.10
2018-08-19T23:14:20.296Z,7.10
2018-08-19T23:19:24.095Z,7.27
2018-08-19T23:24:28.098Z,6.63
2018-08-19T23:29:31.890Z,6.93
2018-08-19T23:34:35.936Z,7.07
2018-08-19T23:39:39.995Z,7.17
2018-08-19T23:44:43.794Z,7.13
2018-08-19T23:49:47.655Z,6.93
2018-08-19T23:54:51.780Z,6.80
2018-08-19T23:59:55.839Z,7.37
